createdAt,value
2022-09-01T00:00:28.510Z,18.20
2022-09-01T00:02:57.054Z,18.20
2022-09-01T00:05:32.263Z,18.20
2022-09-01T00:08:00.691Z,18.10
2022-09-01T00:10:37.115Z,18.10
2022-09-01T00:13:07.183Z,18.10
2022-09-01T00:15:43.243Z,18.00
2022-09-01T00:18:14.348Z,18.00
2022-09-01T00:20:51.862Z,18.00
2022-09-01T00:23:26.511Z,17.90
2022-09-01T00:26:02.270Z,17.90
2022-09-01T00:28:30.566Z,17.80
2022-09-01T00:31:05.328Z,17.80
2022-09-01T00:33:34.035Z,17.80
2022-09-01T00:36:09.320Z,17.70
2022-09-01T00:38:40.701Z,17.70
2022-09-01T00:41:17.161Z,17.70
2022-09-01T00:43:48.491Z,17.60
2022-09-01T00:46:28.928Z,17.60
2022-09-01T00:49:00.919Z,17.60
2022-09-01T00:51:37.563Z,17.50
2022-09-01T00:54:08.961Z,17.50
2022-09-01T00:56:48.227Z,17.40
2022-09-01T00:59:27.032Z,17.40
2022-09-01T01:02:02.226Z,17.40
2022-09-01T01:04:31.430Z,17.30
2022-09-01T01:07:21.237Z,17.30
2022-09-01T01:09:56.472Z,17.30
2022-09-01T01:12:37.232Z,17.30
2022-09-01T01:15:13.226Z,17.20
2022-09-01T01:17:42.138Z,17.20
2022-09-01T01:20:43.567Z,17.10
2022-09-01T01:23:27.204Z,17.10
2022-09-01T01:26:07.343Z,17.10
2022-09-01T01:28:38.362Z,17.00
2022-09-01T01:31:20.373Z,17.00
2022-09-01T01:33:50.780Z,17.00
2022-09-01T01:36:39.566Z,16.90
2022-09-01T01:39:12.005Z,16.90
2022-09-01T01:41:51.266Z,16.90
2022-09-01T01:44:22.919Z,16.80
2022-09-01T01:47:01.592Z,16.80
2022-09-01T01:49:31.181Z,16.80
2022-09-01T01:52:06.281Z,16.70
2022-09-01T01:54:37.653Z,16.70
2022-09-01T01:57:15.286Z,16.60
2022-09-01T01:59:43.570Z,16.60
2022-09-01T02:02:19.410Z,16.60
2022-09-01T02:04:47.710Z,16.60
2022-09-01T02:07:23.233Z,16.50
2022-09-01T02:09:51.953Z,16.50
2022-09-01T02:12:32.330Z,16.40
2022-09-01T02:15:01.177Z,16.40
2022-09-01T02:17:36.298Z,16.40
2022-09-01T02:20:25.397Z,16.30
2022-09-01T02:23:02.611Z,16.30
2022-09-01T02:25:31.966Z,16.30
2022-09-01T02:28:09.319Z,16.30
2022-09-01T02:30:39.029Z,16.20
2022-09-01T02:33:15.428Z,16.20
2022-09-01T02:35:43.852Z,16.20
2022-09-01T02:38:20.784Z,16.20
2022-09-01T02:40:49.254Z,16.20
2022-09-01T02:43:26.252Z,16.20
2022-09-01T02:45:56.899Z,16.20
2022-09-01T02:48:35.261Z,16.20
2022-09-01T02:51:04.309Z,16.20
2022-09-01T02:53:41.339Z,16.20
2022-09-01T02:56:14.676Z,16.10
2022-09-01T02:58:53.279Z,16.10
2022-09-01T03:01:25.683Z,16.00
2022-09-01T03:04:02.459Z,16.00
2022-09-01T03:06:34.822Z,16.00
2022-09-01T03:09:12.446Z,15.90
2022-09-01T03:11:43.613Z,15.90
2022-09-01T03:14:21.284Z,15.90
2022-09-01T03:16:49.925Z,15.90
2022-09-01T03:19:25.341Z,15.80
2022-09-01T03:22:00.463Z,15.80
2022-09-01T03:24:38.489Z,15.80
2022-09-01T03:27:07.652Z,15.70
2022-09-01T03:29:44.375Z,15.70
2022-09-01T03:32:12.809Z,15.60
2022-09-01T03:34:48.699Z,15.60
2022-09-01T03:37:17.678Z,15.50
2022-09-01T03:39:53.491Z,15.50
2022-09-01T03:42:28.138Z,15.50
2022-09-01T03:45:04.347Z,15.40
2022-09-01T03:47:33.687Z,15.40
2022-09-01T03:50:08.326Z,15.40
2022-09-01T03:52:37.243Z,15.30
2022-09-01T03:55:12.481Z,15.30
2022-09-01T03:57:42.843Z,15.20
2022-09-01T04:00:27.491Z,15.20
2022-09-01T04:03:01.465Z,15.20
2022-09-01T04:05:37.500Z,15.10
2022-09-01T04:08:08.085Z,15.10
2022-09-01T04:10:44.441Z,15.00
2022-09-01T04:13:13.708Z,15.00
2022-09-01T04:15:52.806Z,14.90
2022-09-01T04:18:20.719Z,14.90
2022-09-01T04:20:57.495Z,14.90
2022-09-01T04:23:30.215Z,14.80
2022-09-01T04:26:15.779Z,14.80
2022-09-01T04:28:46.036Z,14.80
2022-09-01T04:31:25.806Z,14.80
2022-09-01T04:33:54.470Z,14.80
2022-09-01T04:36:32.537Z,14.70
2022-09-01T04:39:02.950Z,14.70
2022-09-01T04:41:40.534Z,14.70
2022-09-01T04:44:09.878Z,14.70
2022-09-01T04:46:48.503Z,14.70
2022-09-01T04:49:20.038Z,14.80
2022-09-01T04:51:56.807Z,14.70
2022-09-01T04:54:25.460Z,14.70
2022-09-01T04:57:01.814Z,14.70
2022-09-01T04:59:32.672Z,14.70
2022-09-01T05:02:09.751Z,14.70
2022-09-01T05:04:44.987Z,14.70
2022-09-01T05:07:20.439Z,14.70
2022-09-01T05:09:49.302Z,14.70
2022-09-01T05:12:27.450Z,14.70
2022-09-01T05:14:56.210Z,14.60
2022-09-01T05:17:32.475Z,14.70
2022-09-01T05:20:01.369Z,14.70
2022-09-01T05:22:42.482Z,14.70
2022-09-01T05:25:13.605Z,14.70
2022-09-01T05:27:56.863Z,14.70
2022-09-01T05:30:28.701Z,14.70
2022-09-01T05:33:04.592Z,14.80
2022-09-01T05:35:35.038Z,14.80
2022-09-01T05:38:10.780Z,14.80
2022-09-01T05:40:41.116Z,14.80
2022-09-01T05:43:19.602Z,14.80
2022-09-01T05:46:05.659Z,14.90
2022-09-01T05:48:46.429Z,14.90
2022-09-01T05:51:40.392Z,15.00
2022-09-01T05:54:15.075Z,15.00
2022-09-01T05:56:45.029Z,15.10
2022-09-01T05:59:25.182Z,15.20
2022-09-01T06:01:54.776Z,15.20
2022-09-01T06:07:16.295Z,15.50
2022-09-01T06:10:00.528Z,15.60
2022-09-01T06:12:29.054Z,15.70
2022-09-01T06:15:04.631Z,15.80
2022-09-01T06:17:36.032Z,15.90
2022-09-01T06:20:17.768Z,15.90
2022-09-01T06:22:47.752Z,16.00
2022-09-01T06:25:25.629Z,16.00
2022-09-01T06:27:54.605Z,16.10
2022-09-01T06:30:31.518Z,16.10
2022-09-01T06:33:02.639Z,16.20
2022-09-01T06:35:37.658Z,16.30
2022-09-01T06:38:07.955Z,16.40
2022-09-01T06:40:48.611Z,16.50
2022-09-01T06:43:20.647Z,16.50
2022-09-01T06:45:56.668Z,16.60
2022-09-01T06:48:25.076Z,16.70
2022-09-01T06:51:17.309Z,16.80
2022-09-01T06:53:50.223Z,16.90
2022-09-01T06:56:31.999Z,17.00
2022-09-01T06:59:12.895Z,17.00
2022-09-01T07:01:43.012Z,17.10
2022-09-01T07:04:13.434Z,17.10
2022-09-01T07:09:47.802Z,17.20
2022-09-01T07:12:26.833Z,17.30
2022-09-01T07:17:57.587Z,17.40
2022-09-01T07:20:29.562Z,17.50
2022-09-01T07:23:08.078Z,17.60
2022-09-01T07:26:02.388Z,17.60
2022-09-01T07:28:39.572Z,17.70
2022-09-01T07:39:55.512Z,18.10
2022-09-01T07:42:56.885Z,18.00
2022-09-01T07:45:27.347Z,18.30
2022-09-01T07:48:00.157Z,18.50
2022-09-01T07:51:33.974Z,18.60
2022-09-01T07:53:28.036Z,18.70
2022-09-01T07:56:04.718Z,18.80
2022-09-01T07:58:33.693Z,18.90
2022-09-01T08:01:13.933Z,19.00
2022-09-01T08:03:42.662Z,19.10
2022-09-01T08:06:28.012Z,19.20
2022-09-01T08:09:02.522Z,19.20
2022-09-01T08:14:27.066Z,19.40
2022-09-01T08:23:51.047Z,19.70
2022-09-01T08:26:24.358Z,19.80
2022-09-01T08:29:13.631Z,20.00
2022-09-01T08:31:42.377Z,20.10
2022-09-01T08:34:23.882Z,20.10
2022-09-01T08:36:52.322Z,20.30
2022-09-01T08:39:42.757Z,20.40
2022-09-01T08:42:19.352Z,20.60
2022-09-01T08:45:02.662Z,20.70
2022-09-01T08:47:49.236Z,20.80
2022-09-01T08:50:27.782Z,20.90
2022-09-01T08:53:09.475Z,21.10
2022-09-01T08:55:49.533Z,21.20
2022-09-01T08:58:19.057Z,21.40
2022-09-01T09:00:59.596Z,21.60
2022-09-01T09:03:41.654Z,21.80
2022-09-01T09:06:24.621Z,22.00
2022-09-01T09:09:03.652Z,22.20
2022-09-01T09:12:13.625Z,22.40
2022-09-01T09:15:01.731Z,22.70
2022-09-01T09:17:41.627Z,22.90
2022-09-01T09:20:11.034Z,23.10
2022-09-01T09:22:59.309Z,23.30
2022-09-01T09:25:29.719Z,23.40
2022-09-01T09:28:04.638Z,23.70
2022-09-01T09:30:33.145Z,23.90
2022-09-01T09:36:17.937Z,24.10
2022-09-01T09:38:53.628Z,24.00
2022-09-01T09:41:27.188Z,24.10
2022-09-01T09:44:06.662Z,24.10
2022-09-01T09:46:39.708Z,24.30
2022-09-01T09:49:21.553Z,24.20
2022-09-01T09:52:16.819Z,24.40
2022-09-01T09:55:10.701Z,24.60
2022-09-01T09:57:41.550Z,24.40
2022-09-01T10:00:26.675Z,24.30
2022-09-01T10:02:58.391Z,24.40
2022-09-01T10:05:43.653Z,24.60
2022-09-01T10:08:28.445Z,24.70
2022-09-01T10:11:06.695Z,24.90
2022-09-01T10:13:43.719Z,24.90
2022-09-01T10:16:27.901Z,24.70
2022-09-01T10:19:00.651Z,24.90
2022-09-01T10:21:41.716Z,24.90
2022-09-01T10:24:22.352Z,24.90
2022-09-01T10:27:11.304Z,25.00
2022-09-01T10:30:12.123Z,25.10
2022-09-01T10:32:50.710Z,24.90
2022-09-01T10:35:30.714Z,25.20
2022-09-01T10:38:00.606Z,25.30
2022-09-01T10:40:49.129Z,25.50
2022-09-01T10:43:35.977Z,25.80
2022-09-01T10:46:52.442Z,25.40
2022-09-01T10:49:37.494Z,25.30
2022-09-01T10:52:14.127Z,25.40
2022-09-01T10:54:59.514Z,25.70
2022-09-01T10:57:46.686Z,25.70
2022-09-01T11:01:25.338Z,25.50
2022-09-01T11:04:03.886Z,25.40
2022-09-01T11:07:13.547Z,25.40
2022-09-01T11:09:58.868Z,25.50
2022-09-01T11:13:26.906Z,25.80
2022-09-01T11:16:03.739Z,26.10
2022-09-01T11:18:32.608Z,25.60
2022-09-01T11:21:22.919Z,25.40
2022-09-01T11:23:57.830Z,25.70
2022-09-01T11:26:48.875Z,26.10
2022-09-01T11:29:56.814Z,26.60
2022-09-01T11:32:35.642Z,27.00
2022-09-01T11:35:14.907Z,27.20
2022-09-01T11:37:44.176Z,27.30
2022-09-01T11:40:20.983Z,27.30
2022-09-01T11:42:52.246Z,27.40
2022-09-01T11:45:35.043Z,27.60
2022-09-01T11:48:11.231Z,27.70
2022-09-01T11:50:48.827Z,27.50
2022-09-01T11:53:23.583Z,26.90
2022-09-01T11:56:00.929Z,26.80
2022-09-01T11:58:39.573Z,26.90
2022-09-01T12:01:24.144Z,26.80
2022-09-01T12:03:54.791Z,26.40
2022-09-01T12:06:33.001Z,26.10
2022-09-01T12:09:20.830Z,26.30
2022-09-01T12:11:55.952Z,26.50
2022-09-01T12:14:24.286Z,26.50
2022-09-01T12:17:07.235Z,26.40
2022-09-01T12:19:38.758Z,26.30
2022-09-01T12:22:22.918Z,26.00
2022-09-01T12:24:53.630Z,25.70
2022-09-01T12:27:30.184Z,25.40
2022-09-01T12:29:59.047Z,25.40
2022-09-01T12:32:33.939Z,25.40
2022-09-01T12:35:11.341Z,25.50
2022-09-01T12:37:47.114Z,25.50
2022-09-01T12:40:27.469Z,25.40
2022-09-01T12:43:01.956Z,25.60
2022-09-01T12:45:42.235Z,25.80
2022-09-01T12:48:33.450Z,25.70
2022-09-01T12:51:05.229Z,25.90
2022-09-01T12:53:42.558Z,26.30
2022-09-01T12:56:25.207Z,26.60
2022-09-01T12:59:15.768Z,26.80
2022-09-01T13:01:45.758Z,26.80
2022-09-01T13:04:34.920Z,26.60
2022-09-01T13:07:07.691Z,26.70
2022-09-01T13:09:50.201Z,26.80
2022-09-01T13:12:28.158Z,26.90
2022-09-01T13:15:03.279Z,26.70
2022-09-01T13:17:31.611Z,26.90
2022-09-01T13:20:07.008Z,27.00
2022-09-01T13:22:39.776Z,26.90
2022-09-01T13:25:15.938Z,26.90
2022-09-01T13:27:44.864Z,27.20
2022-09-01T13:30:21.941Z,27.40
2022-09-01T13:35:47.293Z,27.20
2022-09-01T13:38:18.370Z,27.00
2022-09-01T13:40:53.990Z,26.70
2022-09-01T13:43:24.154Z,27.00
2022-09-01T13:45:59.122Z,27.40
2022-09-01T13:49:02.439Z,27.60
2022-09-01T13:51:33.948Z,27.30
2022-09-01T13:54:03.743Z,27.20
2022-09-01T13:56:41.949Z,27.20
2022-09-01T13:59:10.220Z,27.20
2022-09-01T14:01:48.082Z,27.40
2022-09-01T14:04:16.355Z,27.30
2022-09-01T14:06:53.442Z,27.00
2022-09-01T14:09:43.047Z,26.60
2022-09-01T14:12:18.055Z,26.50
2022-09-01T14:17:40.966Z,26.30
2022-09-01T14:20:14.396Z,26.30
2022-09-01T14:22:48.999Z,26.60
2022-09-01T14:25:20.535Z,26.90
2022-09-01T14:28:00.118Z,27.20
2022-09-01T14:30:31.629Z,27.00
2022-09-01T14:33:07.005Z,26.90
2022-09-01T14:35:35.287Z,27.10
2022-09-01T14:38:12.213Z,26.70
2022-09-01T14:40:43.235Z,26.40
2022-09-01T14:43:23.341Z,26.20
2022-09-01T14:45:52.265Z,26.20
2022-09-01T14:48:28.308Z,26.10
2022-09-01T14:50:56.681Z,26.00
2022-09-01T14:53:32.986Z,25.80
2022-09-01T14:56:05.120Z,25.80
2022-09-01T14:58:39.999Z,25.90
2022-09-01T15:01:32.793Z,25.90
2022-09-01T15:04:08.054Z,25.90
2022-09-01T15:06:37.848Z,25.90
2022-09-01T15:09:17.224Z,25.80
2022-09-01T15:11:56.458Z,25.80
2022-09-01T15:14:31.070Z,25.90
2022-09-01T15:17:01.104Z,25.80
2022-09-01T15:19:36.043Z,25.70
2022-09-01T15:22:05.026Z,25.70
2022-09-01T15:24:40.066Z,25.70
2022-09-01T15:27:11.783Z,25.70
2022-09-01T15:29:51.193Z,25.60
2022-09-01T15:32:27.983Z,25.60
2022-09-01T15:35:04.499Z,25.50
2022-09-01T15:37:33.025Z,25.50
2022-09-01T15:40:08.074Z,25.50
2022-09-01T15:42:39.357Z,25.40
2022-09-01T15:45:18.451Z,25.30
2022-09-01T15:47:48.475Z,25.40
2022-09-01T15:50:27.706Z,25.30
2022-09-01T15:53:06.758Z,25.30
2022-09-01T15:55:48.057Z,25.20
2022-09-01T15:58:34.315Z,25.10
2022-09-01T16:01:13.807Z,25.10
2022-09-01T16:03:49.176Z,25.00
2022-09-01T16:06:18.832Z,25.10
2022-09-01T16:09:01.236Z,25.20
2022-09-01T16:11:37.107Z,25.10
2022-09-01T16:14:14.219Z,25.00
2022-09-01T16:16:52.074Z,25.00
2022-09-01T16:19:38.419Z,25.00
2022-09-01T16:22:14.792Z,24.90
2022-09-01T16:24:53.494Z,24.90
2022-09-01T16:27:31.996Z,24.90
2022-09-01T16:30:15.105Z,24.90
2022-09-01T16:32:52.790Z,24.80
2022-09-01T16:35:33.209Z,24.80
2022-09-01T16:38:16.785Z,24.80
2022-09-01T16:41:00.265Z,24.80
2022-09-01T16:43:37.442Z,24.80
2022-09-01T16:46:20.602Z,24.70
2022-09-01T16:48:57.673Z,24.70
2022-09-01T16:51:38.182Z,24.70
2022-09-01T16:54:21.138Z,24.60
2022-09-01T16:57:03.237Z,24.60
2022-09-01T16:59:44.314Z,24.60
2022-09-01T17:02:36.322Z,24.50
2022-09-01T17:05:14.274Z,24.50
2022-09-01T17:07:58.492Z,24.50
2022-09-01T17:10:53.349Z,24.50
2022-09-01T17:13:35.143Z,24.40
2022-09-01T17:16:08.357Z,24.40
2022-09-01T17:18:47.159Z,24.30
2022-09-01T17:21:20.622Z,24.30
2022-09-01T17:24:03.197Z,24.20
2022-09-01T17:26:32.513Z,24.20
2022-09-01T17:29:13.565Z,24.10
2022-09-01T17:32:05.482Z,24.10
2022-09-01T17:34:53.502Z,24.00
2022-09-01T17:37:33.107Z,24.00
2022-09-01T17:40:20.726Z,23.90
2022-09-01T17:42:55.470Z,23.90
2022-09-01T17:45:35.200Z,23.90
2022-09-01T17:48:15.400Z,23.80
2022-09-01T17:51:04.724Z,23.80
2022-09-01T17:53:42.625Z,23.70
2022-09-01T17:56:29.281Z,23.60
2022-09-01T17:59:06.318Z,23.60
2022-09-01T18:01:50.227Z,23.50
2022-09-01T18:05:06.378Z,23.40
2022-09-01T18:07:50.639Z,23.30
2022-09-01T18:10:37.313Z,23.30
2022-09-01T18:13:11.541Z,23.20
2022-09-01T18:15:58.549Z,23.20
2022-09-01T18:18:43.763Z,23.10
2022-09-01T18:21:23.253Z,23.00
2022-09-01T18:23:59.486Z,22.90
2022-09-01T18:26:40.207Z,22.90
2022-09-01T18:29:09.046Z,22.80
2022-09-01T18:32:09.337Z,22.70
2022-09-01T18:35:11.876Z,22.60
2022-09-01T18:37:57.586Z,22.60
2022-09-01T18:40:31.407Z,22.50
2022-09-01T18:43:14.347Z,22.40
2022-09-01T18:45:49.367Z,22.40
2022-09-01T18:51:14.743Z,22.30
2022-09-01T18:53:54.210Z,22.20
2022-09-01T18:56:37.651Z,22.20
2022-09-01T18:59:36.627Z,22.10
2022-09-01T19:02:18.430Z,22.00
2022-09-01T19:04:55.366Z,22.00
2022-09-01T19:07:34.560Z,21.90
2022-09-01T19:10:19.427Z,21.80
2022-09-01T19:13:04.277Z,21.80
2022-09-01T19:15:45.534Z,21.80
2022-09-01T19:18:27.671Z,21.70
2022-09-01T19:21:05.303Z,21.70
2022-09-01T19:23:43.420Z,21.70
2022-09-01T19:26:25.572Z,21.60
2022-09-01T19:28:59.281Z,21.60
2022-09-01T19:31:38.433Z,21.50
2022-09-01T19:34:12.375Z,21.50
2022-09-01T19:36:50.284Z,21.40
2022-09-01T19:39:21.458Z,21.40
2022-09-01T19:42:03.853Z,21.30
2022-09-01T19:44:42.240Z,21.30
2022-09-01T19:47:24.476Z,21.30
2022-09-01T19:50:01.317Z,21.20
2022-09-01T19:52:41.287Z,21.10
2022-09-01T19:55:14.709Z,21.10
2022-09-01T19:57:57.880Z,21.10
2022-09-01T20:00:33.025Z,21.00
2022-09-01T20:03:14.525Z,21.00
2022-09-01T20:05:46.631Z,20.90
2022-09-01T20:08:26.271Z,20.90
2022-09-01T20:11:06.452Z,20.80
2022-09-01T20:14:09.284Z,20.80
2022-09-01T20:16:41.746Z,20.80
2022-09-01T20:19:23.307Z,20.80
2022-09-01T20:21:51.565Z,20.70
2022-09-01T20:24:36.285Z,20.70
2022-09-01T20:27:22.189Z,20.60
2022-09-01T20:30:04.488Z,20.60
2022-09-01T20:32:42.361Z,20.60
2022-09-01T20:35:22.322Z,20.60
2022-09-01T20:37:57.461Z,20.50
2022-09-01T20:40:37.378Z,20.50
2022-09-01T20:43:16.193Z,20.50
2022-09-01T20:45:52.360Z,20.40
2022-09-01T20:48:25.337Z,20.40
2022-09-01T20:51:06.287Z,20.30
2022-09-01T20:53:52.562Z,20.30
2022-09-01T20:56:36.294Z,20.30
2022-09-01T20:59:10.865Z,20.20
2022-09-01T21:01:53.385Z,20.20
2022-09-01T21:04:42.535Z,20.20
2022-09-01T21:07:22.320Z,20.10
2022-09-01T21:10:19.248Z,20.00
2022-09-01T21:12:59.329Z,20.00
2022-09-01T21:15:34.994Z,19.90
2022-09-01T21:18:27.347Z,19.90
2022-09-01T21:21:04.329Z,19.80
2022-09-01T21:23:39.387Z,19.70
2022-09-01T21:26:07.739Z,19.70
2022-09-01T21:28:47.640Z,19.60
2022-09-01T21:31:16.755Z,19.60
2022-09-01T21:33:51.397Z,19.50
2022-09-01T21:36:20.960Z,19.50
2022-09-01T21:38:55.341Z,19.40
2022-09-01T21:41:23.403Z,19.40
2022-09-01T21:43:58.342Z,19.30
2022-09-01T21:46:27.194Z,19.30
2022-09-01T21:49:02.336Z,19.30
2022-09-01T21:51:31.875Z,19.20
2022-09-01T21:54:06.343Z,19.20
2022-09-01T21:56:36.512Z,19.20
2022-09-01T21:59:11.366Z,19.10
2022-09-01T22:01:39.993Z,19.10
2022-09-01T22:07:53.199Z,19.00
2022-09-01T22:10:30.430Z,18.90
2022-09-01T22:13:08.339Z,18.80
2022-09-01T22:15:48.349Z,18.80
2022-09-01T22:18:18.468Z,18.80
2022-09-01T22:20:53.371Z,18.70
2022-09-01T22:23:23.061Z,18.70
2022-09-01T22:25:57.398Z,18.60
2022-09-01T22:28:25.550Z,18.60
2022-09-01T22:31:00.528Z,18.60
2022-09-01T22:33:29.360Z,18.50
2022-09-01T22:36:05.416Z,18.50
2022-09-01T22:38:36.854Z,18.40
2022-09-01T22:41:11.414Z,18.40
2022-09-01T22:43:39.554Z,18.40
2022-09-01T22:46:14.437Z,18.40
2022-09-01T22:48:45.445Z,18.30
2022-09-01T22:51:21.468Z,18.30
2022-09-01T22:53:52.628Z,18.30
2022-09-01T22:56:30.428Z,18.30
2022-09-01T22:59:02.807Z,18.30
2022-09-01T23:01:41.392Z,18.20
2022-09-01T23:04:11.600Z,18.20
2022-09-01T23:06:48.458Z,18.20
2022-09-01T23:09:32.421Z,18.10
2022-09-01T23:12:07.850Z,18.10
2022-09-01T23:14:42.458Z,18.10
2022-09-01T23:17:10.568Z,18.10
2022-09-01T23:19:45.438Z,18.00
2022-09-01T23:22:13.673Z,18.00
2022-09-01T23:25:00.481Z,17.90
2022-09-01T23:27:28.865Z,17.90
2022-09-01T23:30:03.501Z,17.90
2022-09-01T23:32:31.600Z,17.80
2022-09-01T23:35:07.681Z,17.80
2022-09-01T23:37:36.010Z,17.80
2022-09-01T23:40:14.518Z,17.80
2022-09-01T23:42:42.713Z,17.70
2022-09-01T23:45:18.495Z,17.70
2022-09-01T23:47:46.649Z,17.70
2022-09-01T23:50:21.471Z,17.70
2022-09-01T23:52:50.541Z,17.70
2022-09-01T23:55:28.512Z,17.70
2022-09-01T23:57:56.644Z,17.70
